Kingsville, TX

5:16 AM CDT on October 24, 2014 (GMT -0500)
Kingsville Naval Air Station | Change Station
CLOSE
Current Station
Airport
Location: Kingsville NAS,
Elevation: 49 ft
Nearby Weather Stations

Elev 49 ft 27.51 °N, 97.81 °W | Updated 20 minutes ago

Clear
Clear
62 °F
Feels Like 62 °F
N
6
Wind Variable Wind from WNW

Today
High -- | Low -- °F
--% Chance of Precip.
Yesterday
High -- | Low -- °F
Precip. -- in
7:36 AM 6:53 PM
New Moon, 0% visible
Pressure 30.08 in
Visibility 9.0 miles
Clouds Clear
Dew Point 62 °F
Humidity 100%
Rainfall 0.00 in
Snow Depth Not available.
UV 0 out of 12
Pollen 5.70 out of 12
Air Quality Not available.
Flu Activity Sporadic
METAR KNQI 240956Z AUTO 30005KT 9SM CLR 17/17 A3009 RMK AO2 SLP186 T01670167

More Conditions Fewer Conditions

Pressure 30.08 in
Visibility 9.0 miles
Clouds Clear
Dew Point 62 °F
Humidity 100%
Rainfall 0.00 in
Snow Depth Not available.
UV 0 out of 12
Pollen 5.70 out of 12
Air Quality Not available.
Flu Activity Sporadic
METAR KNQI 240956Z AUTO 30005KT 9SM CLR 17/17 A3009 RMK AO2 SLP186 T01670167

More Conditions Fewer Conditions

10-Day Weather Forecast

Almanac

Astronomy

Oct. 24, 2014 Rise Set
Actual Time 7:36 AM CDT 6:53 PM CDT
Civil Twilight 7:12 AM CDT 7:17 PM CDT
Nautical Twilight 6:45 AM CDT 7:45 PM CDT
Astronomical Twilight 6:18 AM CDT 8:12 PM CDT
Moon 8:14 AM CDT 7:39 PM CDT
Length of Visible Light 12h 04m
Length of Day
11h 17m
Tomorrow will be 1m 30s shorter.
New Moon, 0% of the Moon is Illuminated
Today
New Moon
Oct 30
First Quarter
Nov 6
Full
Nov 14
Last Quarter
Nov 22
New

Today's Extremes

State Highs State Lows

Community

WunderPhotos

Upload Photos

1,764,513 photos uploaded!

WunderBlogs® & News

Nearby

Snow Depth

Station Depth Elevation
No new snow has been reported.

Earthquake Activity

City Distance Mag. Time & Date
No recent earthquake activity has been reported nearby.
Minimum magnitude displayed is 2.5.

Coastal Water Temperatures

Place Temperature
Baffin Bay Point of Rocks, TX 82.0 °F
South Bird Island, TX 75.9 °F
Packery Channel, TX 75.9 °F
Port Aransas, TX 79.0 °F
Malaquite Beach (Corpus Christi), TX 78.1 °F

Nearby Weather Stations